Time;durP1;ratioP1;P1;durP2;ratioP2;P2;SDS_P1;SDS_P2;PMS_P1;PMS_P2;Temp;Humidity;BMP_temperature;BMP_pressure;BME280_temperature;BME280_humidity;BME280_pressure;Samples;Min_cycle;Max_cycle;Signal;HPM_P1;HPM_P2
2021/08/24 00:00:54;;;;;;;4.95;3.60;;;;;;;14.47;73.43;102613.38;5091147;28;20036;-83
2021/08/24 00:03:20;;;;;;;6.28;4.25;;;;;;;14.46;73.58;102611.72;5096298;28;20020;-84
2021/08/24 00:05:46;;;;;;;4.68;4.13;;;;;;;14.43;73.61;102620.44;5093837;28;20429;-83
2021/08/24 00:08:12;;;;;;;8.60;4.65;;;;;;;14.40;73.94;102624.56;5071063;28;20036;-83
2021/08/24 00:10:49;;;;;;;4.95;3.88;;;;;;;14.36;74.28;102619.81;5092422;28;20028;-83
2021/08/24 00:13:15;;;;;;;4.80;4.18;;;;;;;14.34;74.25;102619.22;5094044;28;20153;-83
2021/08/24 00:15:40;;;;;;;5.28;4.60;;;;;;;14.32;74.43;102621.41;5093489;28;20384;-84
2021/08/24 00:18:07;;;;;;;9.18;4.65;;;;;;;14.29;74.30;102622.72;5094966;28;20032;-82
2021/08/24 00:20:32;;;;;;;5.65;4.65;;;;;;;14.26;74.60;102627.91;5095101;28;20107;-83
2021/08/24 00:23:00;;;;;;;6.15;4.88;;;;;;;14.26;74.90;102619.66;5096089;28;20039;-84
2021/08/24 00:25:25;;;;;;;5.57;4.70;;;;;;;14.26;74.91;102627.91;5094374;28;20477;-83
2021/08/24 00:27:51;;;;;;;10.80;4.78;;;;;;;14.24;74.81;102624.56;5095817;28;20036;-83
2021/08/24 00:30:16;;;;;;;7.50;4.95;;;;;;;14.21;74.71;102621.28;5094570;28;20028;-83
2021/08/24 00:32:42;;;;;;;7.80;4.80;;;;;;;14.19;74.93;102623.44;5094489;28;20034;-84
2021/08/24 00:35:07;;;;;;;6.80;4.38;;;;;;;14.17;75.23;102631.09;5096429;28;20035;-84
2021/08/24 00:37:34;;;;;;;6.65;4.55;;;;;;;14.14;75.30;102626.09;5093839;28;20504;-83
2021/08/24 00:40:00;;;;;;;6.20;4.50;;;;;;;14.09;75.35;102628.78;5095191;28;20028;-84
2021/08/24 00:42:25;;;;;;;8.30;5.10;;;;;;;14.03;75.47;102621.56;5095357;28;20036;-83
2021/08/24 00:44:50;;;;;;;8.35;4.88;;;;;;;13.99;75.46;102623.13;5094786;28;20044;-83
2021/08/24 00:47:20;;;;;;;7.13;4.70;;;;;;;13.96;75.62;102610.75;5089667;28;20427;-83
2021/08/24 00:49:47;;;;;;;6.43;5.10;;;;;;;13.96;75.69;102615.41;5095725;28;20590;-83
2021/08/24 00:52:15;;;;;;;5.78;4.50;;;;;;;13.95;75.67;102613.75;5089223;28;20066;-83
2021/08/24 00:54:41;;;;;;;5.70;5.10;;;;;;;13.92;75.86;102617.84;5094773;28;20020;-83
2021/08/24 00:57:25;;;;;;;6.85;4.97;;;;;;;13.86;76.19;102618.84;5092500;28;20031;-83
2021/08/24 00:59:51;;;;;;;7.32;4.97;;;;;;;13.86;76.24;102612.50;5092853;28;20043;-82
2021/08/24 01:02:18;;;;;;;8.23;4.63;;;;;;;13.85;76.02;102616.34;5088700;28;20028;-82
2021/08/24 01:04:45;;;;;;;4.78;4.07;;;;;;;13.81;75.97;102620.69;5082433;28;20028;-82
2021/08/24 01:07:22;;;;;;;7.38;4.53;;;;;;;13.73;76.28;102614.53;5089595;28;20035;-82
2021/08/24 01:09:51;;;;;;;7.32;4.38;;;;;;;13.70;76.04;102628.75;5085845;28;20326;-82
2021/08/24 01:12:34;;;;;;;6.10;5.18;;;;;;;13.71;76.25;102635.03;5088259;28;20020;-82
2021/08/24 01:15:18;;;;;;;8.07;5.00;;;;;;;13.71;76.35;102630.38;5087643;28;20036;-82
2021/08/24 01:17:54;;;;;;;6.85;5.38;;;;;;;13.71;76.87;102632.31;5084797;28;20060;-82
2021/08/24 01:21:01;;;;;;;7.53;5.00;;;;;;;13.71;77.03;102635.03;5078994;28;20073;-82
2021/08/24 01:24:05;;;;;;;6.80;4.70;;;;;;;13.66;77.00;102634.97;5032350;28;20035;-82
2021/08/24 01:26:42;;;;;;;9.05;5.45;;;;;;;13.62;76.99;102633.81;5014024;28;20025;-81
2021/08/24 01:29:41;;;;;;;5.88;4.40;;;;;;;13.57;77.20;102631.81;5001592;28;20204;-82
2021/08/24 01:32:07;;;;;;;6.07;5.30;;;;;;;13.54;76.89;102630.41;5074524;28;20163;-81
2021/08/24 01:35:03;;;;;;;6.20;5.50;;;;;;;13.52;77.32;102631.72;5094646;28;20346;-82
2021/08/24 01:37:33;;;;;;;6.82;5.07;;;;;;;13.48;77.36;102628.66;5073566;28;20431;-82
2021/08/24 01:40:21;;;;;;;8.73;6.03;;;;;;;13.45;77.40;102633.78;5090596;28;20047;-82
2021/08/24 01:42:46;;;;;;;9.07;5.82;;;;;;;13.44;77.28;102637.63;5091011;28;20445;-82
2021/08/24 01:45:25;;;;;;;7.57;5.53;;;;;;;13.43;77.69;102641.44;5086906;28;20397;-82
2021/08/24 01:47:53;;;;;;;7.70;4.60;;;;;;;13.42;77.75;102639.75;5090358;28;20413;-82
2021/08/24 01:50:37;;;;;;;10.05;6.15;;;;;;;13.41;78.04;102640.84;5094313;28;20035;-82
2021/08/24 01:53:08;;;;;;;6.75;5.50;;;;;;;13.42;78.11;102653.47;5087689;28;20115;-81
2021/08/24 01:55:38;;;;;;;9.52;6.45;;;;;;;13.45;78.00;102642.00;5091480;28;20050;-82
2021/08/24 01:58:10;;;;;;;10.95;6.10;;;;;;;13.45;78.33;102637.38;5093646;28;20433;-81
2021/08/24 02:00:36;;;;;;;8.70;6.40;;;;;;;13.43;78.26;102635.97;5084182;28;20489;-81
2021/08/24 02:03:04;;;;;;;7.88;5.57;;;;;;;13.41;78.36;102646.34;5076268;28;20823;-81
2021/08/24 02:05:34;;;;;;;6.50;5.70;;;;;;;13.40;78.40;102641.94;5075668;28;20032;-81
2021/08/24 02:08:04;;;;;;;6.18;4.68;;;;;;;13.41;78.38;102643.59;5075515;28;20523;-82
2021/08/24 02:10:30;;;;;;;7.38;5.20;;;;;;;13.41;78.29;102655.38;5086974;28;20109;-82
2021/08/24 02:12:55;;;;;;;8.10;6.22;;;;;;;13.38;78.33;102644.09;5076237;28;20461;-81
2021/08/24 02:15:43;;;;;;;6.53;5.35;;;;;;;13.40;78.47;102644.69;5094523;28;20036;-81
2021/08/24 02:18:09;;;;;;;8.85;5.85;;;;;;;13.41;78.67;102643.59;5088134;28;20032;-81
2021/08/24 02:20:37;;;;;;;7.90;5.80;;;;;;;13.41;78.69;102638.94;5092923;28;20015;-81
2021/08/24 02:23:06;;;;;;;7.75;4.55;;;;;;;13.40;78.88;102633.72;5092120;28;20092;-81
2021/08/24 02:25:33;;;;;;;6.63;5.03;;;;;;;13.37;78.99;102642.41;5093553;28;20069;-81
2021/08/24 02:28:01;;;;;;;7.45;4.55;;;;;;;13.33;78.70;102642.06;5075721;28;20099;-81
2021/08/24 02:30:28;;;;;;;7.03;5.80;;;;;;;13.29;78.58;102635.44;5077913;28;20048;-80
2021/08/24 02:32:53;;;;;;;5.80;5.07;;;;;;;13.26;78.77;102634.03;5071175;28;20046;-81
2021/08/24 02:35:44;;;;;;;7.13;5.35;;;;;;;13.25;78.87;102629.56;5093069;28;20553;-80
2021/08/24 02:38:14;;;;;;;7.03;5.50;;;;;;;13.23;78.69;102625.41;5063575;28;20024;-81
2021/08/24 02:40:50;;;;;;;6.22;4.43;;;;;;;13.20;78.48;102626.75;5093042;28;20427;-80
2021/08/24 02:43:41;;;;;;;6.25;5.65;;;;;;;13.17;78.42;102632.72;5092893;28;20028;-80
2021/08/24 02:46:24;;;;;;;6.35;5.75;;;;;;;13.16;78.43;102625.59;5093240;28;20516;-80
2021/08/24 02:48:54;;;;;;;7.68;5.38;;;;;;;13.19;78.40;102629.75;5070271;28;20496;-81
2021/08/24 02:51:20;;;;;;;8.68;5.95;;;;;;;13.18;78.53;102630.84;5090755;28;20028;-81
2021/08/24 02:53:48;;;;;;;8.35;5.93;;;;;;;13.15;78.58;102628.56;5091255;28;20388;-81
2021/08/24 02:56:14;;;;;;;6.63;5.35;;;;;;;13.14;78.59;102627.72;5075868;28;20443;-81
2021/08/24 02:58:39;;;;;;;7.63;5.88;;;;;;;13.13;78.49;102626.09;5092585;28;20028;-80
2021/08/24 03:01:05;;;;;;;7.95;5.93;;;;;;;13.15;78.72;102631.31;5084129;28;20417;-81
2021/08/24 03:03:30;;;;;;;7.13;5.97;;;;;;;13.13;78.73;102623.34;5091996;28;20085;-81
2021/08/24 03:05:56;;;;;;;8.95;6.43;;;;;;;13.14;78.60;102626.91;5085919;28;20118;-81
2021/08/24 03:08:22;;;;;;;13.88;6.18;;;;;;;13.13;78.66;102617.88;5091536;28;20042;-81
2021/08/24 03:10:48;;;;;;;7.75;6.07;;;;;;;13.13;78.57;102615.13;5092489;28;20362;-81
2021/08/24 03:13:25;;;;;;;10.55;7.10;;;;;;;13.16;79.03;102622.03;5088302;28;20038;-81
2021/08/24 03:15:54;;;;;;;8.63;5.85;;;;;;;13.19;79.07;102619.63;5085814;28;20074;-81
2021/08/24 03:18:25;;;;;;;10.32;6.65;;;;;;;13.19;79.03;102605.91;5090837;28;20388;-81
2021/08/24 03:20:52;;;;;;;7.72;6.20;;;;;;;13.21;79.24;102612.00;5092907;28;20023;-81
2021/08/24 03:23:18;;;;;;;11.70;6.53;;;;;;;13.20;78.97;102613.06;5091323;28;20028;-81
2021/08/24 03:25:44;;;;;;;7.05;5.15;;;;;;;13.21;79.27;102616.66;5075235;28;20157;-81
2021/08/24 03:28:14;;;;;;;7.82;6.13;;;;;;;13.22;79.40;102610.91;5091709;28;20096;-81
2021/08/24 03:30:39;;;;;;;10.70;6.03;;;;;;;13.25;79.22;102617.78;5093629;28;20020;-81
2021/08/24 03:33:06;;;;;;;9.60;6.22;;;;;;;13.26;79.38;102625.00;5101135;28;20070;-81
2021/08/24 03:35:32;;;;;;;8.88;6.53;;;;;;;13.29;79.40;102619.00;5093361;28;20130;-81
2021/08/24 03:37:58;;;;;;;7.55;6.03;;;;;;;13.28;79.59;102623.63;5092108;28;20035;-81
2021/08/24 03:40:23;;;;;;;9.65;6.65;;;;;;;13.30;79.90;102626.97;5093264;28;20028;-81
2021/08/24 03:42:48;;;;;;;10.43;7.15;;;;;;;13.33;79.91;102626.47;5090318;28;20085;-81
2021/08/24 03:45:14;;;;;;;10.25;7.20;;;;;;;13.36;80.06;102627.06;5093450;28;20409;-81
2021/08/24 03:47:39;;;;;;;9.45;7.47;;;;;;;13.35;80.11;102634.44;5087780;28;20545;-81
2021/08/24 03:50:05;;;;;;;9.15;7.10;;;;;;;13.36;80.35;102624.31;5055556;28;20036;-81
2021/08/24 03:52:31;;;;;;;9.40;6.60;;;;;;;13.34;80.65;102632.81;5092465;28;20024;-80
2021/08/24 03:54:56;;;;;;;9.20;6.80;;;;;;;13.35;80.72;102633.63;5093454;28;20500;-81
2021/08/24 03:57:22;;;;;;;8.48;6.32;;;;;;;13.34;80.53;102624.59;5086717;28;20028;-80
2021/08/24 03:59:47;;;;;;;7.03;5.70;;;;;;;13.35;80.44;102628.16;5087114;28;20016;-80
2021/08/24 04:02:15;;;;;;;7.95;6.53;;;;;;;13.38;80.52;102627.66;5092208;28;20032;-80
2021/08/24 04:04:41;;;;;;;8.77;6.53;;;;;;;13.38;80.61;102633.13;5093452;28;20028;-81
2021/08/24 04:07:07;;;;;;;9.05;6.68;;;;;;;13.38;80.73;102638.59;5101111;28;20039;-81
2021/08/24 04:09:32;;;;;;;9.88;6.43;;;;;;;13.39;80.29;102643.00;5079671;28;20389;-81
2021/08/24 04:11:57;;;;;;;11.63;8.20;;;;;;;13.39;80.51;102634.78;5087722;28;20027;-81
2021/08/24 04:14:23;;;;;;;8.60;6.53;;;;;;;13.39;80.92;102645.75;5089812;28;20054;-81
2021/08/24 04:16:48;;;;;;;6.85;6.10;;;;;;;13.40;81.06;102639.19;5090924;28;20024;-81
2021/08/24 04:19:14;;;;;;;8.30;6.80;;;;;;;13.41;80.95;102638.94;5087702;28;20467;-81
2021/08/24 04:21:41;;;;;;;8.20;6.10;;;;;;;13.41;80.99;102632.63;5075138;28;20106;-81
2021/08/24 04:24:06;;;;;;;8.20;6.18;;;;;;;13.44;80.83;102635.69;5073350;28;20096;-81
2021/08/24 04:26:32;;;;;;;6.28;5.55;;;;;;;13.44;81.02;102638.44;5097277;28;20457;-81
2021/08/24 04:28:57;;;;;;;6.63;5.45;;;;;;;13.45;80.90;102644.75;5087287;28;20024;-81
2021/08/24 04:31:23;;;;;;;9.48;5.78;;;;;;;13.46;80.69;102638.19;5095440;28;20107;-80
2021/08/24 04:33:49;;;;;;;7.07;5.80;;;;;;;13.50;80.74;102647.56;5094460;28;20085;-80
2021/08/24 04:36:15;;;;;;;9.52;6.50;;;;;;;13.52;80.80;102650.91;5094739;28;20038;-80
2021/08/24 04:38:40;;;;;;;9.10;5.30;;;;;;;13.51;80.60;102655.56;5093570;28;20020;-80
2021/08/24 04:41:06;;;;;;;7.05;5.65;;;;;;;13.55;80.77;102661.38;5094855;28;20020;-80
2021/08/24 04:43:32;;;;;;;8.80;6.72;;;;;;;13.58;80.75;102660.88;5087114;28;20106;-80
2021/08/24 04:45:58;;;;;;;9.52;6.50;;;;;;;13.64;80.96;102657.16;5095969;28;20078;-80
2021/08/24 04:48:26;;;;;;;8.70;6.47;;;;;;;13.69;80.85;102662.69;5093837;28;20389;-80
2021/08/24 04:50:51;;;;;;;6.43;4.82;;;;;;;13.74;80.95;102665.53;5095935;28;20020;-80
2021/08/24 04:53:16;;;;;;;9.05;6.20;;;;;;;13.77;80.98;102670.50;5093724;28;20085;-80
2021/08/24 04:55:42;;;;;;;7.65;6.00;;;;;;;13.82;80.78;102671.69;5096376;28;20020;-80
2021/08/24 04:58:07;;;;;;;11.18;6.95;;;;;;;13.86;80.90;102670.09;5089112;28;20426;-80
2021/08/24 05:00:33;;;;;;;11.10;6.13;;;;;;;13.89;81.01;102666.88;5094118;28;20153;-79
2021/08/24 05:02:59;;;;;;;8.10;6.00;;;;;;;13.91;80.71;102670.16;5091588;28;20036;-79
2021/08/24 05:05:24;;;;;;;6.68;5.15;;;;;;;13.92;80.68;102661.72;5085145;28;20483;-79
2021/08/24 05:07:50;;;;;;;7.25;6.05;;;;;;;13.96;80.71;102662.84;5093111;28;20473;-80
2021/08/24 05:10:15;;;;;;;9.90;6.28;;;;;;;13.98;80.70;102659.88;5077838;28;20461;-80
2021/08/24 05:12:41;;;;;;;7.80;5.35;;;;;;;14.00;80.71;102652.25;5092051;28;20025;-80
2021/08/24 05:15:06;;;;;;;7.22;5.70;;;;;;;14.03;80.65;102648.16;5087825;28;20386;-80
2021/08/24 05:17:32;;;;;;;7.95;5.70;;;;;;;14.04;80.74;102650.63;5092164;28;20024;-80
2021/08/24 05:19:57;;;;;;;7.28;5.03;;;;;;;14.09;80.37;102645.22;5094661;28;20046;-80
2021/08/24 05:22:23;;;;;;;7.20;4.85;;;;;;;14.15;80.53;102646.13;5093552;28;20161;-80
2021/08/24 05:24:48;;;;;;;9.90;6.07;;;;;;;14.18;80.36;102648.38;5095426;28;20032;-80
2021/08/24 05:27:13;;;;;;;7.93;5.00;;;;;;;14.22;80.06;102652.28;5094476;28;20027;-80
2021/08/24 05:29:39;;;;;;;7.35;4.85;;;;;;;14.26;80.11;102655.34;5089925;28;20033;-80
2021/08/24 05:32:05;;;;;;;9.55;5.47;;;;;;;14.29;80.11;102657.56;5095774;28;20027;-80
2021/08/24 05:34:31;;;;;;;7.75;5.00;;;;;;;14.35;80.12;102667.53;5094590;28;20031;-80
2021/08/24 05:36:56;;;;;;;8.50;5.50;;;;;;;14.40;80.18;102665.72;5093667;28;20024;-80
2021/08/24 05:39:21;;;;;;;7.95;5.68;;;;;;;14.46;80.22;102676.72;5090001;28;20024;-80
2021/08/24 05:41:47;;;;;;;6.13;5.03;;;;;;;14.50;80.09;102684.22;5095452;28;20020;-80
2021/08/24 05:44:12;;;;;;;6.80;5.10;;;;;;;14.53;80.06;102677.44;5090623;28;20039;-79
2021/08/24 05:46:38;;;;;;;8.35;5.30;;;;;;;14.57;79.86;102670.34;5093924;28;20016;-79
2021/08/24 05:49:04;;;;;;;8.43;5.82;;;;;;;14.69;79.84;102671.03;5094433;28;20377;-79
2021/08/24 05:51:31;;;;;;;9.15;5.75;;;;;;;14.81;79.62;102671.75;5094314;28;20109;-79
2021/08/24 05:53:56;;;;;;;6.70;4.43;;;;;;;14.91;79.59;102672.94;5092021;28;20477;-80
2021/08/24 05:56:23;;;;;;;5.03;4.47;;;;;;;15.00;79.49;102671.41;5084859;28;20032;-79
2021/08/24 05:58:49;;;;;;;6.88;4.68;;;;;;;15.08;79.15;102680.00;5087390;28;20016;-80
2021/08/24 06:01:22;;;;;;;5.38;4.75;;;;;;;15.19;79.18;102685.63;5090575;28;20020;-80
2021/08/24 06:03:47;;;;;;;5.70;4.15;;;;;;;15.29;79.01;102674.75;5086296;28;20024;-80
2021/08/24 06:06:22;;;;;;;6.47;4.32;;;;;;;15.37;78.60;102681.69;5071731;28;20030;-80
2021/08/24 06:08:48;;;;;;;4.65;4.00;;;;;;;15.43;78.06;102680.66;5092768;28;20023;-79
2021/08/24 06:11:18;;;;;;;6.57;4.63;;;;;;;15.50;78.02;102682.09;5093076;28;20032;-79
2021/08/24 06:13:43;;;;;;;5.22;4.35;;;;;;;15.58;77.58;102683.56;5084367;28;20024;-79
2021/08/24 06:16:09;;;;;;;6.43;4.65;;;;;;;15.67;77.31;102686.66;5094901;28;20031;-80
2021/08/24 06:18:37;;;;;;;7.50;4.72;;;;;;;15.77;77.23;102692.28;5093639;28;20385;-79
2021/08/24 06:21:02;;;;;;;6.72;4.70;;;;;;;15.85;77.08;102688.19;5094907;28;20024;-81
2021/08/24 06:23:28;;;;;;;6.05;4.53;;;;;;;15.93;76.96;102690.44;5092795;28;20347;-79
2021/08/24 06:25:54;;;;;;;6.18;4.40;;;;;;;15.99;76.93;102692.16;5093878;28;20032;-79
2021/08/24 06:28:19;;;;;;;6.55;4.88;;;;;;;16.07;76.87;102691.69;5092100;28;20469;-80
2021/08/24 06:30:45;;;;;;;5.95;4.65;;;;;;;16.15;76.91;102693.09;5091450;28;20027;-80
2021/08/24 06:33:10;;;;;;;8.02;5.10;;;;;;;16.21;76.93;102683.78;5084254;28;20028;-79
2021/08/24 06:35:35;;;;;;;4.47;4.00;;;;;;;16.28;76.99;102681.59;5075536;28;20073;-79
2021/08/24 06:38:01;;;;;;;8.10;4.63;;;;;;;16.35;77.03;102681.38;5093076;28;20469;-80
2021/08/24 06:40:26;;;;;;;5.88;4.85;;;;;;;16.40;77.03;102685.00;5094706;28;20054;-79
2021/08/24 06:42:52;;;;;;;6.47;4.72;;;;;;;16.47;77.16;102678.41;5093419;28;20024;-80
2021/08/24 06:45:26;;;;;;;8.60;4.43;;;;;;;16.52;77.21;102678.44;5091833;28;20527;-79
2021/08/24 06:47:51;;;;;;;5.75;5.15;;;;;;;16.57;77.21;102689.50;5091824;28;20024;-80
2021/08/24 06:50:17;;;;;;;8.90;4.82;;;;;;;16.60;77.13;102678.75;5094440;28;20050;-80
2021/08/24 06:52:42;;;;;;;8.05;4.57;;;;;;;16.67;77.23;102684.03;5093932;28;20499;-80
2021/08/24 06:55:09;;;;;;;4.53;3.92;;;;;;;16.70;77.23;102688.19;5091533;28;20032;-80
2021/08/24 06:57:35;;;;;;;6.13;4.47;;;;;;;16.73;77.23;102682.97;5075965;28;20024;-80
2021/08/24 07:00:01;;;;;;;5.82;4.15;;;;;;;16.78;77.19;102680.25;5089941;28;20048;-80
2021/08/24 07:02:26;;;;;;;7.15;4.05;;;;;;;16.82;77.13;102670.34;5091073;28;20050;-79
2021/08/24 07:04:52;;;;;;;4.88;4.07;;;;;;;16.85;77.23;102678.06;5085642;28;20501;-80
2021/08/24 07:07:18;;;;;;;6.60;3.90;;;;;;;16.91;77.06;102678.09;5080730;28;20028;-80
2021/08/24 07:09:43;;;;;;;4.88;4.00;;;;;;;16.97;76.95;102677.00;5087898;28;20032;-80
2021/08/24 07:12:10;;;;;;;4.80;4.00;;;;;;;16.99;76.81;102672.03;5087126;28;20028;-80
2021/08/24 07:14:36;;;;;;;4.22;3.80;;;;;;;17.04;76.96;102674.81;5088569;28;20074;-80
2021/08/24 07:17:02;;;;;;;7.38;3.83;;;;;;;17.07;76.76;102671.53;5087698;28;20106;-80
2021/08/24 07:19:28;;;;;;;5.35;3.80;;;;;;;17.11;76.78;102675.41;5090920;28;20027;-81
2021/08/24 07:21:53;;;;;;;8.48;4.30;;;;;;;17.17;76.94;102676.25;5091942;28;20073;-81
2021/08/24 07:24:18;;;;;;;5.38;3.65;;;;;;;17.21;76.66;102678.16;5092177;28;20049;-80
2021/08/24 07:26:44;;;;;;;5.35;3.88;;;;;;;17.23;76.36;102687.00;5083055;28;20406;-81
2021/08/24 07:29:09;;;;;;;7.00;4.20;;;;;;;17.26;76.75;102686.44;5085491;28;20039;-81
2021/08/24 07:31:37;;;;;;;5.40;4.10;;;;;;;17.30;76.54;102684.81;5086055;28;20028;-81
2021/08/24 07:34:04;;;;;;;6.97;4.03;;;;;;;17.39;76.59;102685.09;5084581;28;20040;-81
2021/08/24 07:36:30;;;;;;;6.75;4.40;;;;;;;17.49;76.21;102687.06;5079420;28;20105;-81
2021/08/24 07:38:55;;;;;;;5.20;3.75;;;;;;;17.55;76.33;102694.22;5088534;28;20480;-80
2021/08/24 07:41:21;;;;;;;4.60;3.63;;;;;;;17.61;76.46;102701.38;5092095;28;20427;-79
2021/08/24 07:43:46;;;;;;;3.75;3.40;;;;;;;17.64;76.28;102700.84;5090108;28;20028;-80
2021/08/24 07:46:11;;;;;;;4.88;3.90;;;;;;;17.68;76.35;102701.97;5085411;28;20074;-80
2021/08/24 07:48:37;;;;;;;6.82;3.72;;;;;;;17.75;76.16;102708.00;5081826;28;20028;-80
2021/08/24 07:51:02;;;;;;;4.45;3.92;;;;;;;17.81;76.12;102708.03;5090838;28;20024;-82
2021/08/24 07:53:28;;;;;;;4.28;3.63;;;;;;;17.89;76.14;102707.50;5091606;28;20436;-83
2021/08/24 07:55:53;;;;;;;5.03;4.10;;;;;;;17.96;76.12;102705.28;5087697;28;20024;-84
2021/08/24 07:58:19;;;;;;;5.25;3.67;;;;;;;18.02;75.94;102714.41;5085082;28;20028;-83
2021/08/24 08:00:44;;;;;;;6.97;4.20;;;;;;;18.11;75.78;102713.53;5089826;28;20066;-83
2021/08/24 08:03:10;;;;;;;4.10;3.30;;;;;;;18.24;75.63;102711.31;5093995;28;20024;-84
2021/08/24 08:05:36;;;;;;;5.30;3.88;;;;;;;18.34;75.54;102714.06;5073942;28;20118;-83
2021/08/24 08:08:01;;;;;;;4.20;3.80;;;;;;;18.45;75.13;102707.41;5092611;28;20028;-84
2021/08/24 08:10:27;;;;;;;5.88;3.28;;;;;;;18.46;74.93;102709.06;5093597;28;20115;-84
2021/08/24 08:12:52;;;;;;;4.88;3.38;;;;;;;18.45;74.63;102718.47;5092002;28;20024;-84
2021/08/24 08:15:18;;;;;;;4.88;3.78;;;;;;;18.55;74.69;102717.59;5092808;28;20024;-85
2021/08/24 08:17:43;;;;;;;5.25;3.72;;;;;;;18.58;74.21;102712.34;5093887;28;20057;-85
2021/08/24 08:20:11;;;;;;;4.63;3.72;;;;;;;18.59;74.12;102705.72;5074865;28;20024;-86
2021/08/24 08:22:37;;;;;;;4.07;3.65;;;;;;;18.64;74.00;102719.50;5090115;28;20031;-84
2021/08/24 08:25:04;;;;;;;5.35;3.30;;;;;;;18.63;73.76;102712.34;5094818;28;20051;-85
2021/08/24 08:27:29;;;;;;;7.07;3.92;;;;;;;18.68;73.71;102713.41;5094594;28;20028;-85
2021/08/24 08:29:55;;;;;;;6.18;3.90;;;;;;;18.73;73.60;102710.66;5094312;28;20020;-86
2021/08/24 08:32:23;;;;;;;3.55;3.10;;;;;;;18.76;73.63;102718.41;5094747;28;20036;-86
2021/08/24 08:34:48;;;;;;;5.72;3.88;;;;;;;18.80;73.25;102713.97;5076784;28;20020;-86
2021/08/24 08:37:13;;;;;;;4.65;3.63;;;;;;;18.90;73.48;102721.38;5094519;28;20397;-83
2021/08/24 08:39:39;;;;;;;5.07;3.45;;;;;;;19.00;72.84;102708.34;5094676;28;20028;-84
2021/08/24 08:42:27;;;;;;;5.78;3.25;;;;;;;19.16;72.44;102713.78;5093022;28;20020;-84
2021/08/24 08:44:58;;;;;;;3.80;3.03;;;;;;;19.35;71.31;102708.44;5094214;28;20479;-84
2021/08/24 08:48:00;;;;;;;5.05;3.30;;;;;;;19.48;70.92;102711.38;5094119;28;20045;-84
2021/08/24 08:50:37;;;;;;;4.07;3.03;;;;;;;19.58;70.30;102717.94;5094571;28;20028;-85
2021/08/24 08:53:06;;;;;;;3.42;2.78;;;;;;;19.68;69.49;102717.91;5089768;28;20473;-85
2021/08/24 08:55:45;;;;;;;3.60;2.58;;;;;;;19.83;69.04;102726.06;5091966;28;20055;-84
2021/08/24 08:58:32;;;;;;;4.68;2.50;;;;;;;19.99;68.30;102723.19;5089648;28;20034;-85
2021/08/24 09:01:12;;;;;;;5.28;2.40;;;;;;;20.12;68.09;102723.31;5092256;28;20032;-85
2021/08/24 09:03:45;;;;;;;4.70;2.85;;;;;;;20.25;67.09;102724.59;5090680;28;20032;-85
2021/08/24 09:06:11;;;;;;;6.20;2.88;;;;;;;20.31;66.69;102728.97;5071661;28;20081;-83
2021/08/24 09:08:40;;;;;;;4.43;2.88;;;;;;;20.26;65.92;102720.69;5096131;28;20028;-85
2021/08/24 09:11:07;;;;;;;3.53;2.42;;;;;;;20.27;65.54;102727.91;5078969;28;22173;-85
2021/08/24 09:13:39;;;;;;;5.40;2.88;;;;;;;20.31;65.23;102723.41;5083488;28;20028;-83
2021/08/24 09:16:16;;;;;;;4.90;2.88;;;;;;;20.37;64.74;102722.25;5094255;28;20024;-85
2021/08/24 09:18:42;;;;;;;3.13;2.70;;;;;;;20.32;65.11;102727.81;5088396;28;20028;-85
2021/08/24 09:21:08;;;;;;;4.47;2.50;;;;;;;20.41;64.54;102722.50;5091582;28;20115;-85
2021/08/24 09:23:34;;;;;;;3.67;3.33;;;;;;;20.43;64.51;102722.19;5092420;28;20042;-85
2021/08/24 09:26:53;;;;;;;4.32;3.15;;;;;;;20.44;64.42;102718.31;5095150;28;20020;-86
2021/08/24 09:29:20;;;;;;;3.83;2.90;;;;;;;20.50;64.39;102717.13;5009631;28;20036;-85
2021/08/24 09:31:46;;;;;;;5.18;3.03;;;;;;;20.46;64.15;102713.28;5082777;28;20456;-85
2021/08/24 09:34:13;;;;;;;4.93;3.25;;;;;;;20.47;63.69;102713.00;5092969;28;20115;-84
2021/08/24 09:36:38;;;;;;;5.40;2.75;;;;;;;20.51;63.64;102714.06;5090386;28;20397;-84
2021/08/24 09:39:04;;;;;;;5.15;3.30;;;;;;;20.47;63.62;102717.72;5095092;28;20027;-84
2021/08/24 09:41:33;;;;;;;4.13;2.95;;;;;;;20.49;64.00;102716.31;5091028;28;20020;-84
2021/08/24 09:44:17;;;;;;;6.47;3.50;;;;;;;20.58;63.58;102719.28;5076591;28;20027;-85
2021/08/24 09:46:42;;;;;;;4.32;3.30;;;;;;;20.58;63.48;102719.28;5089627;28;20401;-85
2021/08/24 09:49:22;;;;;;;10.15;3.58;;;;;;;20.69;63.20;102715.28;5075279;28;20027;-86
2021/08/24 09:52:00;;;;;;;5.15;2.90;;;;;;;20.73;63.11;102705.22;5087798;28;20043;-86
2021/08/24 09:54:29;;;;;;;3.13;2.83;;;;;;;20.84;62.94;102706.78;5088996;28;20038;-86
2021/08/24 09:57:05;;;;;;;7.38;3.55;;;;;;;20.92;62.88;102718.31;5091410;28;20028;-87
2021/08/24 09:59:41;;;;;;;7.75;3.80;;;;;;;20.93;62.70;102714.44;5093016;28;20102;-85
2021/08/24 10:02:44;;;;;;;5.57;3.20;;;;;;;20.95;62.56;102713.00;5087933;28;20047;-86
2021/08/24 10:05:13;;;;;;;5.43;3.60;;;;;;;20.88;62.80;102711.72;5085879;28;20401;-86
2021/08/24 10:07:44;;;;;;;4.55;3.50;;;;;;;20.97;63.08;102707.97;5093096;28;20358;-87
2021/08/24 10:10:31;;;;;;;4.25;3.67;;;;;;;21.10;62.69;102709.19;5076239;28;20362;-88
2021/08/24 10:12:58;;;;;;;5.35;3.67;;;;;;;21.12;62.27;102712.50;5091587;28;20521;-85
2021/08/24 10:15:28;;;;;;;5.47;4.00;;;;;;;21.19;62.30;102712.94;5093449;28;20032;-85
2021/08/24 10:18:06;;;;;;;5.35;3.55;;;;;;;21.21;62.09;102705.16;5089958;28;20077;-85
2021/08/24 10:20:38;;;;;;;4.90;4.35;;;;;;;21.22;62.34;102704.00;5095083;28;20023;-86
2021/08/24 10:23:07;;;;;;;6.38;4.30;;;;;;;21.25;62.19;102700.66;5093043;28;20035;-86
2021/08/24 10:25:43;;;;;;;4.63;3.67;;;;;;;21.32;62.16;102703.06;5074356;28;20048;-86
2021/08/24 10:28:24;;;;;;;7.72;4.22;;;;;;;21.43;61.75;102701.81;5074372;28;20028;-84
2021/08/24 10:31:21;;;;;;;5.93;4.05;;;;;;;21.43;61.73;102695.44;5093665;28;20089;-85
2021/08/24 10:34:10;;;;;;;5.53;4.22;;;;;;;21.28;62.02;102700.06;5080850;28;20428;-86
2021/08/24 10:36:43;;;;;;;7.15;4.55;;;;;;;21.31;62.15;102695.88;5075227;28;20031;-86
2021/08/24 10:39:25;;;;;;;9.18;3.50;;;;;;;21.44;62.17;102700.69;5071746;28;20493;-85
2021/08/24 10:42:26;;;;;;;7.95;4.13;;;;;;;21.56;61.79;102689.13;5091222;28;20469;-85
2021/08/24 10:44:54;;;;;;;5.13;2.85;;;;;;;21.65;61.50;102683.69;5093719;28;20051;-86
2021/08/24 10:47:28;;;;;;;5.28;3.40;;;;;;;21.71;61.31;102690.81;5093298;28;20027;-86
2021/08/24 10:49:54;;;;;;;5.25;3.13;;;;;;;21.78;60.71;102690.44;5088526;28;20039;-86
2021/08/24 10:52:37;;;;;;;3.60;2.58;;;;;;;21.78;60.29;102693.19;5088181;28;20023;-86
2021/08/24 10:55:08;;;;;;;4.43;3.15;;;;;;;21.78;60.11;102682.09;5088203;28;20077;-86
2021/08/24 10:57:45;;;;;;;5.50;2.65;;;;;;;21.88;59.51;102687.44;5092583;28;20283;-86
2021/08/24 11:00:19;;;;;;;4.47;3.17;;;;;;;22.05;59.51;102682.16;5093949;28;20153;-85
2021/08/24 11:03:11;;;;;;;8.10;2.70;;;;;;;22.23;59.21;102687.97;5089265;28;20027;-87
2021/08/24 11:05:41;;;;;;;4.07;3.08;;;;;;;22.39;58.95;102683.75;5065657;28;20439;-89
2021/08/24 11:08:09;;;;;;;5.70;3.10;;;;;;;22.44;58.92;102689.22;5088415;28;20047;-87
2021/08/24 11:10:46;;;;;;;3.95;2.95;;;;;;;22.43;58.79;102684.81;5084581;28;20110;-86
2021/08/24 11:13:15;;;;;;;5.22;3.17;;;;;;;22.33;59.19;102690.56;5079240;28;20433;-79
2021/08/24 11:16:08;;;;;;;5.20;3.30;;;;;;;22.28;59.60;102693.44;5088161;28;20020;-80
2021/08/24 11:18:39;;;;;;;5.35;3.65;;;;;;;22.41;59.64;102691.81;5083838;28;20069;-78
2021/08/24 11:21:30;;;;;;;4.87;3.80;;;;;;;22.48;59.44;102695.81;5091705;28;20020;-79
2021/08/24 11:24:08;;;;;;;6.90;4.30;;;;;;;22.48;59.52;102687.50;5082849;28;20024;-79
2021/08/24 11:26:54;;;;;;;7.95;4.05;;;;;;;22.53;59.47;102684.56;5091726;28;20019;-79
2021/08/24 11:29:43;;;;;;;6.65;4.30;;;;;;;22.29;59.55;102684.81;5085088;28;20023;-78
2021/08/24 11:32:22;;;;;;;7.07;4.30;;;;;;;22.37;59.63;102681.31;5059514;28;20024;-79
2021/08/24 11:34:56;;;;;;;4.80;3.83;;;;;;;22.39;59.52;102673.47;5091995;28;20032;-79
2021/08/24 11:37:26;;;;;;;9.38;4.00;;;;;;;22.28;59.57;102677.56;5077565;28;20024;-78